Time;durP1;ratioP1;P1;durP2;ratioP2;P2;SDS_P1;SDS_P2;PMS_P1;PMS_P2;Temp;Humidity;BMP_temperature;BMP_pressure;BME280_temperature;BME280_humidity;BME280_pressure;Samples;Min_cycle;Max_cycle;Signal;HPM_P1;HPM_P2
2023/06/14 00:02:02;;;;;;;;;;;;;;;28.50;24.20;101476.16;5112917;28;19912;-67
2023/06/14 00:04:28;;;;;;;;;;;;;;;28.49;24.49;101478.09;5103169;28;19943;-67
2023/06/14 00:06:56;;;;;;;;;;;;;;;28.53;23.87;101479.19;5093200;28;20628;-67
2023/06/14 00:09:22;;;;;;;;;;;;;;;28.53;23.67;101481.16;5101968;28;19912;-67
2023/06/14 00:11:47;;;;;;;;;;;;;;;28.55;24.08;101484.44;5113508;28;19911;-67
2023/06/14 00:14:12;;;;;;;;;;;;;;;28.51;24.48;101477.78;5113346;27;20368;-67
2023/06/14 00:16:38;;;;;;;;;;;;;;;28.45;24.81;101487.25;5113392;28;19912;-68
2023/06/14 00:19:04;;;;;;;;;;;;;;;28.43;24.16;101482.00;5113079;28;20305;-68
2023/06/14 00:21:30;;;;;;;;;;;;;;;28.46;24.21;101480.63;5110283;28;19922;-68
2023/06/14 00:23:57;;;;;;;;;;;;;;;28.42;24.54;101485.91;5113481;28;19935;-67
2023/06/14 00:26:22;;;;;;;;;;;;;;;28.44;24.50;101488.38;5146251;27;19912;-68
2023/06/14 00:28:47;;;;;;;;;;;;;;;28.43;23.98;101487.53;5113273;28;19949;-66
2023/06/14 00:31:13;;;;;;;;;;;;;;;28.42;24.37;101490.59;5113167;28;19912;-67
2023/06/14 00:33:38;;;;;;;;;;;;;;;28.46;24.11;101492.50;5113387;28;20003;-67
2023/06/14 00:36:03;;;;;;;;;;;;;;;28.47;24.00;101491.41;5113468;28;20356;-67
2023/06/14 00:38:29;;;;;;;;;;;;;;;28.46;23.88;101483.38;5113224;27;19912;-67
2023/06/14 00:40:54;;;;;;;;;;;;;;;28.51;24.06;101483.31;5113313;28;20344;-67
2023/06/14 00:43:19;;;;;;;;;;;;;;;28.51;24.04;101486.94;5113477;28;19912;-67
2023/06/14 00:45:45;;;;;;;;;;;;;;;28.50;24.05;101489.97;5113042;28;19976;-66
2023/06/14 00:48:10;;;;;;;;;;;;;;;28.41;24.39;101487.00;5113299;28;20399;-67
2023/06/14 00:50:36;;;;;;;;;;;;;;;28.36;24.56;101487.03;5112779;28;19924;-67
2023/06/14 00:53:02;;;;;;;;;;;;;;;28.34;23.80;101490.13;5112912;28;19911;-67
2023/06/14 00:55:27;;;;;;;;;;;;;;;28.34;24.57;101487.34;5113383;28;19955;-67
2023/06/14 00:57:54;;;;;;;;;;;;;;;28.33;24.30;101485.69;5112843;28;20287;-68
2023/06/14 01:00:19;;;;;;;;;;;;;;;28.33;24.59;101493.16;5112638;28;20554;-67
2023/06/14 01:02:44;;;;;;;;;;;;;;;28.28;24.46;101487.66;5112249;28;19912;-67
2023/06/14 01:05:10;;;;;;;;;;;;;;;28.22;24.43;101492.41;5096557;28;19973;-68
2023/06/14 01:07:51;;;;;;;;;;;;;;;28.17;24.82;101496.03;5090974;28;20370;-68
2023/06/14 01:10:23;;;;;;;;;;;;;;;28.14;25.22;101488.31;5108867;28;19989;-67
2023/06/14 01:12:56;;;;;;;;;;;;;;;28.16;25.00;101488.88;5112713;28;19912;-68
2023/06/14 01:15:22;;;;;;;;;;;;;;;28.21;24.56;101499.03;5112729;28;19918;-68
2023/06/14 01:17:51;;;;;;;;;;;;;;;28.23;24.58;101496.84;5110496;28;19990;-67
2023/06/14 01:20:17;;;;;;;;;;;;;;;28.21;25.38;101498.22;5112549;28;19961;-67
2023/06/14 01:22:54;;;;;;;;;;;;;;;28.16;25.11;101497.16;5112541;28;19915;-67
2023/06/14 01:25:23;;;;;;;;;;;;;;;28.15;24.89;101495.50;5112919;28;19969;-67
2023/06/14 01:27:59;;;;;;;;;;;;;;;28.14;25.05;101493.03;5112539;28;20387;-66
2023/06/14 01:30:25;;;;;;;;;;;;;;;28.11;25.15;101488.88;5112711;28;19923;-68
2023/06/14 01:32:51;;;;;;;;;;;;;;;28.10;24.83;101495.53;5112619;28;19911;-67
2023/06/14 01:35:17;;;;;;;;;;;;;;;28.11;24.68;101494.41;5112680;28;20002;-68
2023/06/14 01:37:43;;;;;;;;;;;;;;;28.10;25.52;101492.78;5114195;28;20352;-67
2023/06/14 01:40:10;;;;;;;;;;;;;;;28.05;25.00;101501.09;5116588;28;19912;-67
2023/06/14 01:42:37;;;;;;;;;;;;;;;28.02;25.22;101498.91;5116913;28;20260;-68
2023/06/14 01:45:03;;;;;;;;;;;;;;;27.96;25.64;101495.34;5116291;28;19911;-67
2023/06/14 01:47:29;;;;;;;;;;;;;;;27.93;25.86;101500.59;5116419;28;20344;-67
2023/06/14 01:49:54;;;;;;;;;;;;;;;27.89;25.37;101507.78;5115788;28;19912;-67
2023/06/14 01:52:22;;;;;;;;;;;;;;;27.88;25.53;101504.22;5115880;28;19965;-67
2023/06/14 01:54:47;;;;;;;;;;;;;;;27.85;25.50;101502.00;5116087;28;19911;-67
2023/06/14 01:57:12;;;;;;;;;;;;;;;27.83;25.78;101497.91;5116065;27;20291;-66
2023/06/14 01:59:38;;;;;;;;;;;;;;;27.87;25.79;101504.50;5115996;28;19916;-67
2023/06/14 02:02:03;;;;;;;;;;;;;;;27.94;25.50;101510.56;5115212;28;19915;-67
2023/06/14 02:04:28;;;;;;;;;;;;;;;27.87;25.63;101508.06;5105531;28;20049;-67
2023/06/14 02:06:54;;;;;;;;;;;;;;;27.91;25.78;101500.88;5095766;28;19951;-66
2023/06/14 02:09:19;;;;;;;;;;;;;;;27.87;26.04;101499.78;5103778;28;19911;-66
2023/06/14 02:11:45;;;;;;;;;;;;;;;27.87;25.66;101501.72;5116003;28;19916;-67
2023/06/14 02:14:11;;;;;;;;;;;;;;;27.90;26.32;101504.78;5111897;28;20397;-67
2023/06/14 02:16:37;;;;;;;;;;;;;;;28.00;26.09;101504.69;5115874;28;19931;-67
2023/06/14 02:19:02;;;;;;;;;;;;;;;28.06;25.85;101499.16;5115677;28;20297;-66
2023/06/14 02:21:27;;;;;;;;;;;;;;;28.07;25.98;101504.41;5115644;28;19958;-66
2023/06/14 02:23:53;;;;;;;;;;;;;;;28.08;25.47;101502.44;5115917;28;19998;-66
2023/06/14 02:26:18;;;;;;;;;;;;;;;28.03;26.20;101497.81;5115428;28;19966;-66
2023/06/14 02:28:43;;;;;;;;;;;;;;;28.00;25.61;101499.19;5115444;28;19912;-66
2023/06/14 02:31:08;;;;;;;;;;;;;;;28.00;26.45;101501.94;5114182;28;19915;-67
2023/06/14 02:33:34;;;;;;;;;;;;;;;28.06;25.80;101496.38;5115243;28;19960;-66
2023/06/14 02:35:59;;;;;;;;;;;;;;;28.02;26.15;101501.66;5115145;28;19918;-66
2023/06/14 02:38:25;;;;;;;;;;;;;;;28.00;25.83;101501.94;5115087;27;19911;-66
2023/06/14 02:40:50;;;;;;;;;;;;;;;27.99;26.28;101496.72;5115237;28;19918;-66
2023/06/14 02:43:17;;;;;;;;;;;;;;;27.96;26.44;101495.34;5148403;27;19915;-66
2023/06/14 02:45:42;;;;;;;;;;;;;;;27.93;26.65;101503.38;5115001;28;19912;-66
2023/06/14 02:48:08;;;;;;;;;;;;;;;27.90;26.57;101499.25;5115014;28;19960;-66
2023/06/14 02:50:33;;;;;;;;;;;;;;;27.88;26.46;101509.72;5115072;28;19927;-66
2023/06/14 02:52:58;;;;;;;;;;;;;;;27.88;25.91;101506.97;5148436;27;19916;-66
2023/06/14 02:55:24;;;;;;;;;;;;;;;27.90;26.59;101506.72;5114910;28;19916;-66
2023/06/14 02:57:49;;;;;;;;;;;;;;;27.87;26.36;101510.00;5115066;28;19911;-66
2023/06/14 03:00:15;;;;;;;;;;;;;;;27.83;26.57;101503.41;5113597;28;19919;-66
2023/06/14 03:02:42;;;;;;;;;;;;;;;27.82;26.29;101508.09;5114106;28;19916;-66
2023/06/14 03:05:08;;;;;;;;;;;;;;;27.80;26.04;101502.88;5098969;28;20318;-67
2023/06/14 03:07:34;;;;;;;;;;;;;;;27.76;26.49;101507.28;5093893;28;20008;-67
2023/06/14 03:09:59;;;;;;;;;;;;;;;27.72;26.74;101505.41;5105538;28;19919;-66
2023/06/14 03:12:25;;;;;;;;;;;;;;;27.71;26.76;101509.25;5114270;28;19916;-67
2023/06/14 03:14:51;;;;;;;;;;;;;;;27.77;26.21;101503.44;5114541;28;19911;-67
2023/06/14 03:17:17;;;;;;;;;;;;;;;27.75;26.60;101505.66;5114491;28;19916;-67
2023/06/14 03:19:42;;;;;;;;;;;;;;;27.74;26.49;101504.00;5113234;28;19965;-68
2023/06/14 03:22:08;;;;;;;;;;;;;;;27.77;26.16;101514.47;5114570;28;20452;-67
2023/06/14 03:24:36;;;;;;;;;;;;;;;27.81;26.07;101507.28;5114297;28;19919;-67
2023/06/14 03:27:01;;;;;;;;;;;;;;;27.89;25.93;101516.06;5114390;28;19918;-67
2023/06/14 03:29:27;;;;;;;;;;;;;;;27.87;26.58;101513.59;5114332;28;19912;-66
2023/06/14 03:31:59;;;;;;;;;;;;;;;27.87;26.55;101510.84;5114064;28;19947;-67
2023/06/14 03:34:25;;;;;;;;;;;;;;;27.94;26.40;101510.56;5114342;27;19912;-67
2023/06/14 03:36:50;;;;;;;;;;;;;;;27.92;26.91;101512.78;5114320;27;20494;-67
2023/06/14 03:39:15;;;;;;;;;;;;;;;27.95;26.69;101512.19;5114367;28;20387;-67
2023/06/14 03:41:40;;;;;;;;;;;;;;;27.95;26.53;101515.81;5113933;28;20300;-67
2023/06/14 03:44:06;;;;;;;;;;;;;;;27.97;26.82;101516.34;5114002;28;19915;-67
2023/06/14 03:46:31;;;;;;;;;;;;;;;27.97;26.86;101521.84;5114164;28;19911;-67
2023/06/14 03:48:57;;;;;;;;;;;;;;;27.97;26.85;101527.38;5113782;28;20007;-67
2023/06/14 03:51:22;;;;;;;;;;;;;;;27.92;27.34;101519.13;5113616;28;19969;-67
2023/06/14 03:53:47;;;;;;;;;;;;;;;27.91;27.10;101522.16;5113962;28;19919;-67
2023/06/14 03:56:16;;;;;;;;;;;;;;;27.98;27.07;101520.72;5114024;28;20006;-66
2023/06/14 03:58:41;;;;;;;;;;;;;;;28.00;27.16;101524.03;5113949;28;19977;-66
2023/06/14 04:01:06;;;;;;;;;;;;;;;28.05;27.12;101528.72;5112706;28;19941;-66
2023/06/14 04:03:33;;;;;;;;;;;;;;;28.08;26.83;101530.06;5111550;28;19912;-66
2023/06/14 04:05:59;;;;;;;;;;;;;;;28.11;26.92;101533.09;5097553;28;20380;-66
2023/06/14 04:08:25;;;;;;;;;;;;;;;28.17;26.95;101531.94;5111719;28;20461;-66
2023/06/14 04:10:50;;;;;;;;;;;;;;;28.16;26.56;101540.53;5113206;28;19916;-67
2023/06/14 04:13:15;;;;;;;;;;;;;;;28.20;26.74;101530.56;5113478;28;19912;-67
2023/06/14 04:15:42;;;;;;;;;;;;;;;28.22;26.79;101539.38;5113551;28;20585;-67
2023/06/14 04:18:07;;;;;;;;;;;;;;;28.22;27.16;101539.38;5112226;28;19916;-67
2023/06/14 04:20:33;;;;;;;;;;;;;;;28.34;26.78;101547.28;5113446;28;19912;-68
2023/06/14 04:23:12;;;;;;;;;;;;;;;28.43;26.88;101542.00;5113306;28;20368;-66
2023/06/14 04:25:37;;;;;;;;;;;;;;;28.48;27.62;101542.78;5113609;28;19948;-67
2023/06/14 04:28:03;;;;;;;;;;;;;;;28.50;27.61;101545.25;5113578;28;20372;-66
2023/06/14 04:30:31;;;;;;;;;;;;;;;28.50;28.28;101550.78;5113056;28;19923;-66
2023/06/14 04:32:56;;;;;;;;;;;;;;;28.56;27.98;101544.13;5113240;28;19920;-66
2023/06/14 04:35:23;;;;;;;;;;;;;;;28.59;27.68;101545.50;5113274;28;19924;-66
2023/06/14 04:37:49;;;;;;;;;;;;;;;28.67;27.44;101548.44;5113372;28;19919;-66
2023/06/14 04:40:14;;;;;;;;;;;;;;;28.71;27.90;101552.28;5113370;28;19912;-66
2023/06/14 04:42:40;;;;;;;;;;;;;;;28.71;27.85;101546.75;5113374;28;19912;-66
2023/06/14 04:45:06;;;;;;;;;;;;;;;28.70;27.62;101555.34;5113058;28;20374;-66
2023/06/14 04:47:32;;;;;;;;;;;;;;;28.67;28.08;101556.75;5113366;28;19919;-66
2023/06/14 04:49:57;;;;;;;;;;;;;;;28.70;28.21;101555.34;5112914;28;19911;-66
2023/06/14 04:52:26;;;;;;;;;;;;;;;28.73;27.59;101552.00;5112896;28;19942;-66
2023/06/14 04:54:52;;;;;;;;;;;;;;;28.71;28.28;101552.28;5113060;28;19912;-66
2023/06/14 04:57:21;;;;;;;;;;;;;;;28.74;28.31;101551.72;5113045;28;19912;-66
2023/06/14 04:59:47;;;;;;;;;;;;;;;28.79;27.89;101548.09;5113029;28;20586;-66
2023/06/14 05:02:12;;;;;;;;;;;;;;;28.77;28.20;101548.38;5109981;28;19951;-66
2023/06/14 05:04:40;;;;;;;;;;;;;;;28.76;28.50;101549.47;5101261;28;20398;-68
2023/06/14 05:07:09;;;;;;;;;;;;;;;28.77;27.84;101547.56;5092583;28;19981;-68
2023/06/14 05:09:36;;;;;;;;;;;;;;;28.74;28.86;101551.72;5103338;28;19912;-66
2023/06/14 05:12:01;;;;;;;;;;;;;;;28.64;28.93;101550.97;5113299;28;19916;-65
2023/06/14 05:14:27;;;;;;;;;;;;;;;28.60;29.26;101542.41;5117232;27;19919;-65
2023/06/14 05:16:53;;;;;;;;;;;;;;;28.66;28.92;101544.06;5116960;28;20275;-65
2023/06/14 05:19:18;;;;;;;;;;;;;;;28.72;28.66;101542.06;5116816;28;19957;-65
2023/06/14 05:21:44;;;;;;;;;;;;;;;28.74;28.74;101546.19;5116866;28;19915;-66
2023/06/14 05:24:11;;;;;;;;;;;;;;;28.80;29.15;101546.94;5116884;27;20006;-66
2023/06/14 05:26:36;;;;;;;;;;;;;;;28.83;28.60;101543.63;5116710;28;20368;-66
2023/06/14 05:29:02;;;;;;;;;;;;;;;28.77;28.43;101544.78;5116994;28;19956;-67
2023/06/14 05:31:28;;;;;;;;;;;;;;;28.87;28.83;101544.69;5116751;27;19970;-66
2023/06/14 05:33:53;;;;;;;;;;;;;;;28.85;28.80;101548.88;5116586;28;19943;-66
2023/06/14 05:36:19;;;;;;;;;;;;;;;28.87;28.53;101549.41;5116520;28;19912;-67
2023/06/14 05:38:45;;;;;;;;;;;;;;;28.89;28.93;101549.94;5116505;28;19961;-67
2023/06/14 05:41:10;;;;;;;;;;;;;;;29.00;28.85;101557.00;5116379;28;19911;-67
2023/06/14 05:43:35;;;;;;;;;;;;;;;29.08;28.01;101559.13;5116511;28;19919;-66
2023/06/14 05:46:01;;;;;;;;;;;;;;;29.13;28.57;101559.09;5115701;28;19966;-66
2023/06/14 05:48:26;;;;;;;;;;;;;;;29.20;28.13;101569.00;5115757;28;19919;-67
2023/06/14 05:50:51;;;;;;;;;;;;;;;29.10;28.62;101564.38;5115215;28;19920;-67
2023/06/14 05:53:17;;;;;;;;;;;;;;;29.08;28.50;101567.41;5116172;28;19941;-67
2023/06/14 05:55:42;;;;;;;;;;;;;;;29.17;28.68;101573.19;5115896;28;19961;-67
2023/06/14 05:58:07;;;;;;;;;;;;;;;29.22;27.98;101561.25;5113612;28;19958;-67
2023/06/14 06:00:33;;;;;;;;;;;;;;;29.38;27.73;101559.94;5116250;28;20307;-67
2023/06/14 06:02:59;;;;;;;;;;;;;;;29.34;28.10;101575.50;5115214;28;19918;-67
2023/06/14 06:05:24;;;;;;;;;;;;;;;29.44;28.39;101574.53;5097788;28;19912;-67
2023/06/14 06:07:49;;;;;;;;;;;;;;;29.34;28.41;101568.00;5095572;28;19920;-68
2023/06/14 06:10:15;;;;;;;;;;;;;;;29.42;28.14;101568.47;5111620;28;19931;-68
2023/06/14 06:12:41;;;;;;;;;;;;;;;29.47;28.23;101569.25;5115755;28;19912;-67
2023/06/14 06:15:07;;;;;;;;;;;;;;;29.52;28.08;101577.50;5115877;28;19938;-67
2023/06/14 06:17:33;;;;;;;;;;;;;;;29.48;28.79;101579.22;5116076;27;19911;-67
2023/06/14 06:19:58;;;;;;;;;;;;;;;29.48;28.36;101576.44;5115796;28;19912;-67
2023/06/14 06:22:23;;;;;;;;;;;;;;;29.54;28.46;101574.44;5115640;28;19911;-67
2023/06/14 06:24:49;;;;;;;;;;;;;;;29.61;28.41;101572.16;5115124;28;19911;-67
2023/06/14 06:27:14;;;;;;;;;;;;;;;29.59;28.34;101585.47;5115523;28;20261;-67
2023/06/14 06:29:41;;;;;;;;;;;;;;;29.61;28.46;101580.44;5115436;28;19937;-67
2023/06/14 06:32:07;;;;;;;;;;;;;;;29.66;28.46;101582.31;5115397;28;19919;-67
2023/06/14 06:34:32;;;;;;;;;;;;;;;29.66;28.03;101580.41;5115336;28;19912;-67
2023/06/14 06:36:57;;;;;;;;;;;;;;;29.62;28.19;101590.38;5115705;28;19958;-66
2023/06/14 06:39:22;;;;;;;;;;;;;;;29.71;28.25;101590.56;5115319;28;19912;-67
2023/06/14 06:41:48;;;;;;;;;;;;;;;29.79;27.82;101586.34;5095711;28;20416;-67
2023/06/14 06:44:13;;;;;;;;;;;;;;;29.85;28.05;101588.78;5094855;28;19912;-66
2023/06/14 06:46:42;;;;;;;;;;;;;;;29.90;27.38;101591.47;5094864;28;19912;-67
2023/06/14 06:49:08;;;;;;;;;;;;;;;30.02;27.42;101599.34;5094649;28;20022;-67
2023/06/14 06:51:34;;;;;;;;;;;;;;;30.11;27.54;101605.06;5093963;28;20400;-65
2023/06/14 06:54:00;;;;;;;;;;;;;;;30.27;26.96;101609.25;5094800;28;19912;-67
2023/06/14 06:56:25;;;;;;;;;;;;;;;30.41;27.01;101601.03;5093537;28;19923;-66
2023/06/14 06:58:50;;;;;;;;;;;;;;;30.40;27.07;101602.16;5094436;28;19912;-66
2023/06/14 07:01:16;;;;;;;;;;;;;;;30.43;27.09;101600.75;5093534;28;20462;-68
2023/06/14 07:03:41;;;;;;;;;;;;;;;30.49;26.78;101602.28;5094289;28;19912;-67
2023/06/14 07:06:07;;;;;;;;;;;;;;;30.57;26.88;101606.34;5094725;28;19912;-67
2023/06/14 07:08:32;;;;;;;;;;;;;;;30.67;26.66;101607.00;5095930;28;19912;-68
2023/06/14 07:10:58;;;;;;;;;;;;;;;30.74;26.68;101603.00;5114488;28;20010;-68
2023/06/14 07:13:23;;;;;;;;;;;;;;;30.66;26.85;101608.16;5107610;28;19920;-68
2023/06/14 07:15:48;;;;;;;;;;;;;;;30.67;26.90;101601.47;5093455;28;19944;-69
2023/06/14 07:18:13;;;;;;;;;;;;;;;30.69;27.05;101599.19;5092367;28;19912;-68
2023/06/14 07:20:40;;;;;;;;;;;;;;;30.56;26.61;101605.53;5093759;28;20003;-68
2023/06/14 07:23:05;;;;;;;;;;;;;;;30.55;26.84;101603.84;5093930;28;20011;-68
2023/06/14 07:25:30;;;;;;;;;;;;;;;30.69;26.85;101603.94;5093863;28;19973;-68
2023/06/14 07:27:56;;;;;;;;;;;;;;;30.63;26.48;101605.97;5092646;28;19959;-69
2023/06/14 07:30:25;;;;;;;;;;;;;;;30.56;26.83;101616.59;5093521;28;19955;-68
2023/06/14 07:32:51;;;;;;;;;;;;;;;30.64;26.25;101613.13;5093474;28;20295;-68
2023/06/14 07:35:16;;;;;;;;;;;;;;;30.48;26.57;101609.81;5092714;28;19923;-68
2023/06/14 07:37:42;;;;;;;;;;;;;;;30.52;27.19;101615.56;5093404;28;19912;-68
2023/06/14 07:40:08;;;;;;;;;;;;;;;30.64;26.80;101612.31;5093955;28;19919;-69
2023/06/14 07:42:34;;;;;;;;;;;;;;;30.73;26.31;101610.50;5093683;28;20300;-68
2023/06/14 07:45:02;;;;;;;;;;;;;;;30.87;26.30;101613.34;5093935;28;19954;-69
2023/06/14 07:47:27;;;;;;;;;;;;;;;30.87;26.21;101605.03;5093481;28;19916;-69
2023/06/14 07:49:53;;;;;;;;;;;;;;;30.85;25.54;101610.03;5093428;28;19919;-68
2023/06/14 07:52:18;;;;;;;;;;;;;;;30.65;25.82;101606.47;5108750;28;19920;-70
2023/06/14 07:54:43;;;;;;;;;;;;;;;30.58;26.19;101614.34;5112718;28;19919;-69
2023/06/14 07:57:08;;;;;;;;;;;;;;;30.63;26.02;101613.47;5112781;28;19911;-69
2023/06/14 07:59:34;;;;;;;;;;;;;;;30.69;25.58;101613.06;5112732;27;19911;-69
2023/06/14 08:01:59;;;;;;;;;;;;;;;30.69;25.84;101607.53;5111939;28;19916;-70
2023/06/14 08:04:25;;;;;;;;;;;;;;;30.64;26.09;101615.91;5103522;28;19961;-70
2023/06/14 08:06:50;;;;;;;;;;;;;;;30.75;25.12;101608.25;5092822;28;20007;-70
2023/06/14 08:09:16;;;;;;;;;;;;;;;30.87;25.51;101610.56;5100799;28;19919;-70
2023/06/14 08:11:41;;;;;;;;;;;;;;;30.78;25.15;101607.66;5113264;28;20303;-70
2023/06/14 08:14:06;;;;;;;;;;;;;;;30.68;24.90;101603.13;5113217;28;19930;-70
2023/06/14 08:16:32;;;;;;;;;;;;;;;30.63;25.45;101603.19;5113025;28;19918;-70
2023/06/14 08:18:57;;;;;;;;;;;;;;;30.65;25.72;101603.72;5113076;28;20278;-70
2023/06/14 08:21:23;;;;;;;;;;;;;;;30.67;26.04;101604.22;5112020;28;19912;-69
2023/06/14 08:23:48;;;;;;;;;;;;;;;30.69;26.55;101606.69;5112981;28;19964;-70
2023/06/14 08:26:14;;;;;;;;;;;;;;;30.57;26.45;101607.19;5113088;28;19947;-70
2023/06/14 08:28:39;;;;;;;;;;;;;;;30.52;26.16;101610.03;5111795;28;20006;-70
2023/06/14 08:31:05;;;;;;;;;;;;;;;30.61;26.50;101602.66;5113104;28;20012;-70
2023/06/14 08:33:32;;;;;;;;;;;;;;;30.48;26.44;101611.75;5113382;28;19912;-70
2023/06/14 08:35:58;;;;;;;;;;;;;;;30.52;26.49;101604.47;5113215;28;19944;-70
2023/06/14 08:38:23;;;;;;;;;;;;;;;30.62;25.94;101601.53;5112920;28;19934;-69
2023/06/14 08:40:53;;;;;;;;;;;;;;;30.66;25.34;101599.81;5112919;28;19912;-69
2023/06/14 08:43:18;;;;;;;;;;;;;;;30.74;24.73;101603.00;5113417;28;19919;-70
2023/06/14 08:45:46;;;;;;;;;;;;;;;30.62;25.42;101604.31;5112704;28;19912;-70
2023/06/14 08:48:12;;;;;;;;;;;;;;;30.61;24.95;101608.22;5093135;28;20434;-69
2023/06/14 08:50:39;;;;;;;;;;;;;;;30.52;24.85;101607.25;5071966;28;19929;-69
2023/06/14 08:53:06;;;;;;;;;;;;;;;30.42;24.96;101601.84;5072149;28;20312;-69
2023/06/14 08:55:32;;;;;;;;;;;;;;;30.47;24.40;101607.31;5072188;28;20340;-69
2023/06/14 08:57:58;;;;;;;;;;;;;;;30.51;25.05;101608.38;5105356;28;20257;-69
2023/06/14 09:00:24;;;;;;;;;;;;;;;30.38;25.23;101601.63;5105597;28;19927;-69
2023/06/14 09:02:55;;;;;;;;;;;;;;;30.41;25.34;101603.00;5073185;28;19913;-69
2023/06/14 09:05:21;;;;;;;;;;;;;;;30.41;24.79;101606.56;5123385;28;19916;-71
2023/06/14 09:07:49;;;;;;;;;;;;;;;30.45;24.41;101604.84;5092941;28;19955;-70
2023/06/14 09:10:15;;;;;;;;;;;;;;;30.61;23.82;101601.81;5109017;28;19912;-70
2023/06/14 09:12:40;;;;;;;;;;;;;;;30.64;23.57;101599.28;5113053;28;19995;-69
2023/06/14 09:15:08;;;;;;;;;;;;;;;30.71;22.82;101595.31;5112926;28;20507;-69
2023/06/14 09:17:34;;;;;;;;;;;;;;;30.72;23.70;101591.41;5112578;28;19911;-69
2023/06/14 09:20:00;;;;;;;;;;;;;;;30.91;23.45;101589.44;5145711;27;19915;-69
2023/06/14 09:22:25;;;;;;;;;;;;;;;30.93;23.07;101587.19;5112602;28;19965;-69
2023/06/14 09:24:50;;;;;;;;;;;;;;;30.99;22.94;101574.06;5145512;27;19986;-70
2023/06/14 09:27:16;;;;;;;;;;;;;;;31.14;21.88;101582.09;5112541;28;19980;-70
2023/06/14 09:29:41;;;;;;;;;;;;;;;31.22;21.26;101575.84;5112351;28;19911;-70
2023/06/14 09:32:07;;;;;;;;;;;;;;;31.19;20.10;101576.44;5112530;28;20014;-70
2023/06/14 09:34:33;;;;;;;;;;;;;;;31.17;20.17;101569.56;5112409;28;19961;-70
2023/06/14 09:36:58;;;;;;;;;;;;;;;31.29;19.96;101574.59;5112318;28;20022;-70
2023/06/14 09:39:24;;;;;;;;;;;;;;;31.22;19.01;101569.44;5145542;27;19912;-70
2023/06/14 09:41:50;;;;;;;;;;;;;;;31.37;18.71;101574.72;5111100;28;20272;-70
2023/06/14 09:44:17;;;;;;;;;;;;;;;31.54;20.36;101574.13;5109611;28;19916;-70
2023/06/14 09:46:43;;;;;;;;;;;;;;;31.69;18.25;101563.84;5112198;28;19961;-70
2023/06/14 09:49:09;;;;;;;;;;;;;;;31.61;20.48;101566.22;5110951;28;19911;-70
2023/06/14 09:51:36;;;;;;;;;;;;;;;31.76;19.91;101567.00;5144891;27;20030;-69
2023/06/14 09:54:06;;;;;;;;;;;;;;;31.77;20.11;101566.69;5112197;28;20360;-70
2023/06/14 09:56:34;;;;;;;;;;;;;;;31.87;18.51;101565.66;5112365;28;19912;-70
2023/06/14 09:58:59;;;;;;;;;;;;;;;32.07;20.09;101569.16;5114214;28;19932;-69
2023/06/14 10:01:27;;;;;;;;;;;;;;;32.17;19.99;101569.75;5109215;28;19916;-70
2023/06/14 10:04:05;;;;;;;;;;;;;;;32.33;20.07;101564.63;5095391;28;19912;-69
2023/06/14 10:06:31;;;;;;;;;;;;;;;32.35;19.14;101569.88;5095300;28;20396;-69
2023/06/14 10:08:56;;;;;;;;;;;;;;;32.35;19.24;101573.47;5100382;28;20007;-70
2023/06/14 10:11:22;;;;;;;;;;;;;;;32.31;16.88;101569.69;5115504;28;20295;-70
2023/06/14 10:13:48;;;;;;;;;;;;;;;32.33;17.23;101561.03;5115598;28;19986;-70
2023/06/14 10:16:19;;;;;;;;;;;;;;;32.49;16.95;101562.31;5115637;28;19912;-70
2023/06/14 10:18:44;;;;;;;;;;;;;;;32.65;17.21;101561.94;5114243;28;20352;-70
2023/06/14 10:21:23;;;;;;;;;;;;;;;32.76;17.82;101569.72;5115492;28;19937;-70
2023/06/14 10:23:49;;;;;;;;;;;;;;;32.92;17.70;101558.19;5115385;28;19947;-69
2023/06/14 10:26:21;;;;;;;;;;;;;;;33.06;17.06;101564.50;5115185;28;19981;-69
2023/06/14 10:29:10;;;;;;;;;;;;;;;33.17;17.45;101565.03;5113964;28;19912;-70
2023/06/14 10:31:42;;;;;;;;;;;;;;;33.46;17.09;101552.56;5115314;28;19916;-69
2023/06/14 10:34:08;;;;;;;;;;;;;;;33.75;17.81;101558.41;5115431;28;19994;-69
2023/06/14 10:36:34;;;;;;;;;;;;;;;34.00;17.53;101550.38;5115189;28;20298;-69
2023/06/14 10:39:16;;;;;;;;;;;;;;;34.16;15.64;101547.09;5114212;28;19912;-70
2023/06/14 10:41:50;;;;;;;;;;;;;;;34.38;16.96;101537.78;5074052;28;20015;-70
2023/06/14 10:44:21;;;;;;;;;;;;;;;34.43;16.25;101541.22;5074308;28;20410;-69
2023/06/14 10:46:47;;;;;;;;;;;;;;;34.67;14.84;101545.44;5074098;28;19921;-70
2023/06/14 10:49:17;;;;;;;;;;;;;;;34.82;16.08;101544.94;5072938;28;19913;-69
2023/06/14 10:51:48;;;;;;;;;;;;;;;34.94;15.68;101537.84;5072630;28;19921;-69
2023/06/14 10:54:14;;;;;;;;;;;;;;;35.08;15.80;101546.81;5074267;28;19951;-71
2023/06/14 10:56:50;;;;;;;;;;;;;;;35.25;15.88;101541.22;5073084;28;19986;-70
2023/06/14 10:59:16;;;;;;;;;;;;;;;35.31;15.83;101546.59;5074210;28;20022;-71
2023/06/14 11:01:56;;;;;;;;;;;;;;;35.36;15.98;101535.22;5073183;28;20003;-71
2023/06/14 11:04:29;;;;;;;;;;;;;;;35.54;16.70;101533.16;5081915;28;19912;-70
2023/06/14 11:07:01;;;;;;;;;;;;;;;35.79;15.47;101537.78;5094014;28;19912;-71
2023/06/14 11:09:39;;;;;;;;;;;;;;;36.13;16.17;101526.69;5103472;28;19918;-71
2023/06/14 11:12:06;;;;;;;;;;;;;;;36.35;15.94;101529.13;5114363;28;20328;-71
2023/06/14 11:14:32;;;;;;;;;;;;;;;36.67;16.20;101528.66;5114513;28;19911;-71
2023/06/14 11:16:57;;;;;;;;;;;;;;;36.82;15.35;101528.00;5114502;28;19946;-70
2023/06/14 11:19:22;;;;;;;;;;;;;;;37.03;15.19;101538.28;5114254;28;19943;-70
2023/06/14 11:21:48;;;;;;;;;;;;;;;37.12;14.63;101533.38;5114768;28;20010;-70
2023/06/14 11:24:13;;;;;;;;;;;;;;;37.32;14.80;101531.69;5147345;27;19912;-69
2023/06/14 11:26:40;;;;;;;;;;;;;;;37.51;14.99;101523.47;5114354;28;20469;-69
2023/06/14 11:29:05;;;;;;;;;;;;;;;37.69;15.37;101526.06;5114191;28;20307;-69
2023/06/14 11:31:31;;;;;;;;;;;;;;;38.02;14.74;101519.41;5113964;28;19915;-69
2023/06/14 11:34:00;;;;;;;;;;;;;;;38.10;14.17;101518.47;5114144;28;19912;-69
2023/06/14 11:36:31;;;;;;;;;;;;;;;38.30;13.84;101509.03;5098740;28;19916;-69
2023/06/14 11:39:05;;;;;;;;;;;;;;;38.39;13.94;101510.84;5073480;28;19969;-70
2023/06/14 11:41:40;;;;;;;;;;;;;;;38.44;12.80;101510.59;5105807;28;20285;-69
2023/06/14 11:44:07;;;;;;;;;;;;;;;38.65;12.53;101504.75;5073471;28;19912;-69
2023/06/14 11:46:32;;;;;;;;;;;;;;;38.76;13.02;101499.44;5073164;28;20306;-69
2023/06/14 11:48:58;;;;;;;;;;;;;;;38.98;12.95;101498.78;5071894;28;19999;-69
2023/06/14 11:51:23;;;;;;;;;;;;;;;39.18;13.12;101496.91;5105385;28;20011;-70
2023/06/14 11:53:49;;;;;;;;;;;;;;;39.34;13.14;101491.25;5071891;28;19951;-70
2023/06/14 11:56:15;;;;;;;;;;;;;;;39.64;11.92;101502.78;5072788;28;19913;-70
2023/06/14 11:58:42;;;;;;;;;;;;;;;39.97;12.47;101492.25;5072632;28;20269;-70
2023/06/14 12:01:07;;;;;;;;;;;;;;;40.14;11.87;101486.16;5071768;28;19916;-68
2023/06/14 12:03:33;;;;;;;;;;;;;;;40.44;11.65;101488.38;5075322;28;19919;-70
2023/06/14 12:06:01;;;;;;;;;;;;;;;40.74;11.82;101496.13;5093177;28;19912;-70
2023/06/14 12:08:37;;;;;;;;;;;;;;;40.98;11.45;101483.69;5094139;28;19961;-70
2023/06/14 12:11:03;;;;;;;;;;;;;;;41.18;10.46;101496.47;5114069;28;19915;-70
2023/06/14 12:13:28;;;;;;;;;;;;;;;41.35;10.53;101485.88;5115040;28;19912;-70
2023/06/14 12:15:54;;;;;;;;;;;;;;;41.65;10.98;101479.47;5113085;28;19912;-70
2023/06/14 12:18:20;;;;;;;;;;;;;;;42.08;9.38;101480.00;5113039;28;19990;-70
2023/06/14 12:20:49;;;;;;;;;;;;;;;42.39;9.86;101481.53;5111684;28;20331;-70
2023/06/14 12:23:15;;;;;;;;;;;;;;;42.64;9.84;101467.66;5113323;28;19911;-70
2023/06/14 12:25:41;;;;;;;;;;;;;;;42.81;8.46;101469.00;5113564;28;19919;-71
2023/06/14 12:28:10;;;;;;;;;;;;;;;43.02;8.43;101467.56;5113551;28;19961;-70
2023/06/14 12:30:35;;;;;;;;;;;;;;;43.15;9.29;101471.69;5113390;28;19915;-71
2023/06/14 12:33:04;;;;;;;;;;;;;;;43.16;9.16;101461.19;5110519;28;20024;-71
2023/06/14 12:35:29;;;;;;;;;;;;;;;43.59;9.20;101467.09;5113187;28;19922;-71